sensor_id;sensor_type;location;lat;lon;timestamp;P1;durP1;ratioP1;P2;durP2;ratioP2
12248;SDS011;6187;50.778;6.142;2023-06-22T00:00:40;3.23;;;2.93;;
12248;SDS011;6187;50.778;6.142;2023-06-22T00:03:10;4.03;;;3.67;;
12248;SDS011;6187;50.778;6.142;2023-06-22T00:05:40;4.97;;;3.63;;
12248;SDS011;6187;50.778;6.142;2023-06-22T00:08:08;3.70;;;3.40;;
12248;SDS011;6187;50.778;6.142;2023-06-22T00:10:37;4.93;;;3.80;;
12248;SDS011;6187;50.778;6.142;2023-06-22T00:13:06;3.83;;;3.37;;
12248;SDS011;6187;50.778;6.142;2023-06-22T00:15:35;4.30;;;3.50;;
12248;SDS011;6187;50.778;6.142;2023-06-22T00:18:04;3.90;;;3.50;;
12248;SDS011;6187;50.778;6.142;2023-06-22T00:20:32;3.50;;;3.20;;
12248;SDS011;6187;50.778;6.142;2023-06-22T00:23:04;4.27;;;3.63;;
12248;SDS011;6187;50.778;6.142;2023-06-22T00:25:34;4.20;;;3.27;;
12248;SDS011;6187;50.778;6.142;2023-06-22T00:28:03;4.40;;;4.00;;
12248;SDS011;6187;50.778;6.142;2023-06-22T00:30:32;3.77;;;3.30;;
12248;SDS011;6187;50.778;6.142;2023-06-22T00:33:01;4.07;;;3.67;;
12248;SDS011;6187;50.778;6.142;2023-06-22T00:35:30;4.00;;;3.60;;
12248;SDS011;6187;50.778;6.142;2023-06-22T00:37:59;3.93;;;3.63;;
12248;SDS011;6187;50.778;6.142;2023-06-22T00:40:30;4.40;;;3.60;;
12248;SDS011;6187;50.778;6.142;2023-06-22T00:42:59;4.00;;;3.57;;
12248;SDS011;6187;50.778;6.142;2023-06-22T00:45:27;3.87;;;3.40;;
12248;SDS011;6187;50.778;6.142;2023-06-22T00:47:57;3.73;;;3.40;;
12248;SDS011;6187;50.778;6.142;2023-06-22T00:50:27;4.20;;;3.80;;
12248;SDS011;6187;50.778;6.142;2023-06-22T00:53:03;4.87;;;4.10;;
12248;SDS011;6187;50.778;6.142;2023-06-22T00:55:36;3.97;;;3.60;;
12248;SDS011;6187;50.778;6.142;2023-06-22T00:58:06;3.93;;;3.53;;
12248;SDS011;6187;50.778;6.142;2023-06-22T01:00:37;3.60;;;3.30;;
12248;SDS011;6187;50.778;6.142;2023-06-22T01:03:06;5.40;;;3.53;;
12248;SDS011;6187;50.778;6.142;2023-06-22T01:05:36;3.97;;;3.40;;
12248;SDS011;6187;50.778;6.142;2023-06-22T01:08:07;4.73;;;3.40;;
12248;SDS011;6187;50.778;6.142;2023-06-22T01:10:39;4.10;;;3.70;;
12248;SDS011;6187;50.778;6.142;2023-06-22T01:13:11;3.77;;;3.40;;
12248;SDS011;6187;50.778;6.142;2023-06-22T01:15:43;3.67;;;3.33;;
12248;SDS011;6187;50.778;6.142;2023-06-22T01:18:16;4.20;;;3.73;;
12248;SDS011;6187;50.778;6.142;2023-06-22T01:20:45;5.40;;;4.50;;
12248;SDS011;6187;50.778;6.142;2023-06-22T01:23:17;4.33;;;3.93;;
12248;SDS011;6187;50.778;6.142;2023-06-22T01:25:53;4.10;;;3.70;;
12248;SDS011;6187;50.778;6.142;2023-06-22T01:28:35;3.93;;;3.60;;
12248;SDS011;6187;50.778;6.142;2023-06-22T01:31:04;4.10;;;3.70;;
12248;SDS011;6187;50.778;6.142;2023-06-22T01:33:37;4.40;;;4.00;;
12248;SDS011;6187;50.778;6.142;2023-06-22T01:36:06;3.73;;;3.43;;
12248;SDS011;6187;50.778;6.142;2023-06-22T01:38:34;4.73;;;4.20;;
12248;SDS011;6187;50.778;6.142;2023-06-22T01:41:04;4.03;;;3.63;;
12248;SDS011;6187;50.778;6.142;2023-06-22T01:43:34;4.20;;;3.80;;
12248;SDS011;6187;50.778;6.142;2023-06-22T01:46:04;3.80;;;3.50;;
12248;SDS011;6187;50.778;6.142;2023-06-22T01:48:32;3.40;;;3.10;;
12248;SDS011;6187;50.778;6.142;2023-06-22T01:51:01;3.70;;;3.40;;
12248;SDS011;6187;50.778;6.142;2023-06-22T01:53:30;4.30;;;3.90;;
12248;SDS011;6187;50.778;6.142;2023-06-22T01:55:58;4.40;;;4.00;;
12248;SDS011;6187;50.778;6.142;2023-06-22T01:58:28;4.00;;;3.63;;
12248;SDS011;6187;50.778;6.142;2023-06-22T02:01:07;4.77;;;4.27;;
12248;SDS011;6187;50.778;6.142;2023-06-22T02:03:38;6.03;;;4.23;;
12248;SDS011;6187;50.778;6.142;2023-06-22T02:06:11;4.80;;;4.30;;
12248;SDS011;6187;50.778;6.142;2023-06-22T02:08:46;4.47;;;3.87;;
12248;SDS011;6187;50.778;6.142;2023-06-22T02:11:15;4.10;;;3.70;;
12248;SDS011;6187;50.778;6.142;2023-06-22T02:13:45;4.73;;;4.33;;
12248;SDS011;6187;50.778;6.142;2023-06-22T02:16:15;4.73;;;4.27;;
12248;SDS011;6187;50.778;6.142;2023-06-22T02:18:45;4.20;;;3.70;;
12248;SDS011;6187;50.778;6.142;2023-06-22T02:21:17;5.13;;;4.13;;
12248;SDS011;6187;50.778;6.142;2023-06-22T02:23:46;4.27;;;3.70;;
12248;SDS011;6187;50.778;6.142;2023-06-22T02:26:16;3.90;;;3.60;;
12248;SDS011;6187;50.778;6.142;2023-06-22T02:28:44;4.33;;;3.93;;
12248;SDS011;6187;50.778;6.142;2023-06-22T02:31:13;4.23;;;3.83;;
12248;SDS011;6187;50.778;6.142;2023-06-22T02:33:43;5.07;;;4.50;;
12248;SDS011;6187;50.778;6.142;2023-06-22T02:36:12;5.00;;;4.50;;
12248;SDS011;6187;50.778;6.142;2023-06-22T02:38:41;4.23;;;3.83;;
12248;SDS011;6187;50.778;6.142;2023-06-22T02:41:14;3.97;;;3.57;;
12248;SDS011;6187;50.778;6.142;2023-06-22T02:43:44;5.63;;;4.80;;
12248;SDS011;6187;50.778;6.142;2023-06-22T02:46:13;4.80;;;4.30;;
12248;SDS011;6187;50.778;6.142;2023-06-22T02:48:41;4.13;;;3.73;;
12248;SDS011;6187;50.778;6.142;2023-06-22T02:51:14;4.40;;;3.57;;
12248;SDS011;6187;50.778;6.142;2023-06-22T02:53:42;4.23;;;3.80;;
12248;SDS011;6187;50.778;6.142;2023-06-22T02:56:12;4.30;;;3.90;;
12248;SDS011;6187;50.778;6.142;2023-06-22T02:58:40;4.37;;;3.93;;
12248;SDS011;6187;50.778;6.142;2023-06-22T03:01:09;4.10;;;3.70;;
12248;SDS011;6187;50.778;6.142;2023-06-22T03:03:39;4.77;;;3.93;;
12248;SDS011;6187;50.778;6.142;2023-06-22T03:06:08;5.67;;;4.27;;
12248;SDS011;6187;50.778;6.142;2023-06-22T03:08:41;4.43;;;3.80;;
12248;SDS011;6187;50.778;6.142;2023-06-22T03:11:10;4.40;;;4.00;;
12248;SDS011;6187;50.778;6.142;2023-06-22T03:13:38;4.57;;;4.13;;
12248;SDS011;6187;50.778;6.142;2023-06-22T03:16:07;4.40;;;4.00;;
12248;SDS011;6187;50.778;6.142;2023-06-22T03:18:36;4.40;;;4.00;;
12248;SDS011;6187;50.778;6.142;2023-06-22T03:21:04;4.10;;;3.70;;
12248;SDS011;6187;50.778;6.142;2023-06-22T03:23:33;6.07;;;4.10;;
12248;SDS011;6187;50.778;6.142;2023-06-22T03:26:03;4.63;;;3.80;;
12248;SDS011;6187;50.778;6.142;2023-06-22T03:28:31;4.07;;;3.57;;
12248;SDS011;6187;50.778;6.142;2023-06-22T03:31:00;4.43;;;3.77;;
12248;SDS011;6187;50.778;6.142;2023-06-22T03:33:28;3.90;;;3.50;;
12248;SDS011;6187;50.778;6.142;2023-06-22T03:35:57;4.13;;;3.73;;
12248;SDS011;6187;50.778;6.142;2023-06-22T03:38:26;3.97;;;3.60;;
12248;SDS011;6187;50.778;6.142;2023-06-22T03:40:54;4.47;;;4.07;;
12248;SDS011;6187;50.778;6.142;2023-06-22T03:43:24;6.00;;;4.50;;
12248;SDS011;6187;50.778;6.142;2023-06-22T03:45:53;4.80;;;3.83;;
12248;SDS011;6187;50.778;6.142;2023-06-22T03:48:21;5.77;;;3.80;;
12248;SDS011;6187;50.778;6.142;2023-06-22T03:50:50;3.63;;;3.27;;
12248;SDS011;6187;50.778;6.142;2023-06-22T03:53:19;4.90;;;3.70;;
12248;SDS011;6187;50.778;6.142;2023-06-22T03:55:48;4.43;;;3.73;;
12248;SDS011;6187;50.778;6.142;2023-06-22T03:58:17;4.00;;;3.20;;
12248;SDS011;6187;50.778;6.142;2023-06-22T04:00:48;3.87;;;3.33;;
12248;SDS011;6187;50.778;6.142;2023-06-22T04:03:16;5.50;;;3.90;;
12248;SDS011;6187;50.778;6.142;2023-06-22T04:05:46;4.67;;;3.30;;
12248;SDS011;6187;50.778;6.142;2023-06-22T04:08:15;4.37;;;3.40;;
12248;SDS011;6187;50.778;6.142;2023-06-22T04:10:44;6.63;;;3.70;;
12248;SDS011;6187;50.778;6.142;2023-06-22T04:13:12;4.97;;;3.77;;
12248;SDS011;6187;50.778;6.142;2023-06-22T04:15:41;3.60;;;3.30;;
12248;SDS011;6187;50.778;6.142;2023-06-22T04:18:11;4.00;;;3.40;;
12248;SDS011;6187;50.778;6.142;2023-06-22T04:20:40;4.17;;;3.77;;
12248;SDS011;6187;50.778;6.142;2023-06-22T04:23:13;4.07;;;3.20;;
12248;SDS011;6187;50.778;6.142;2023-06-22T04:25:42;4.33;;;3.67;;
12248;SDS011;6187;50.778;6.142;2023-06-22T04:28:10;3.73;;;2.90;;
12248;SDS011;6187;50.778;6.142;2023-06-22T04:30:39;4.30;;;3.87;;
12248;SDS011;6187;50.778;6.142;2023-06-22T04:33:14;4.50;;;3.60;;
12248;SDS011;6187;50.778;6.142;2023-06-22T04:35:44;4.40;;;4.00;;
12248;SDS011;6187;50.778;6.142;2023-06-22T04:38:13;4.30;;;3.60;;
12248;SDS011;6187;50.778;6.142;2023-06-22T04:40:41;5.40;;;3.80;;
12248;SDS011;6187;50.778;6.142;2023-06-22T04:43:10;5.50;;;3.47;;
12248;SDS011;6187;50.778;6.142;2023-06-22T04:45:39;4.63;;;3.53;;
12248;SDS011;6187;50.778;6.142;2023-06-22T04:48:07;3.80;;;3.40;;
12248;SDS011;6187;50.778;6.142;2023-06-22T04:50:38;3.93;;;3.53;;
12248;SDS011;6187;50.778;6.142;2023-06-22T04:53:06;3.83;;;3.10;;
12248;SDS011;6187;50.778;6.142;2023-06-22T04:55:36;3.53;;;3.23;;
12248;SDS011;6187;50.778;6.142;2023-06-22T04:58:08;5.43;;;3.60;;
12248;SDS011;6187;50.778;6.142;2023-06-22T05:00:39;4.93;;;3.77;;
12248;SDS011;6187;50.778;6.142;2023-06-22T05:03:11;5.73;;;3.73;;
12248;SDS011;6187;50.778;6.142;2023-06-22T05:05:47;4.33;;;3.93;;
12248;SDS011;6187;50.778;6.142;2023-06-22T05:08:15;4.60;;;4.00;;
12248;SDS011;6187;50.778;6.142;2023-06-22T05:10:44;6.03;;;4.20;;
12248;SDS011;6187;50.778;6.142;2023-06-22T05:13:30;4.47;;;3.90;;
12248;SDS011;6187;50.778;6.142;2023-06-22T05:15:58;5.53;;;4.00;;
12248;SDS011;6187;50.778;6.142;2023-06-22T05:18:29;4.37;;;3.90;;
12248;SDS011;6187;50.778;6.142;2023-06-22T05:20:59;5.10;;;4.30;;
12248;SDS011;6187;50.778;6.142;2023-06-22T05:23:28;5.13;;;3.80;;
12248;SDS011;6187;50.778;6.142;2023-06-22T05:25:57;5.03;;;4.50;;
12248;SDS011;6187;50.778;6.142;2023-06-22T05:28:25;4.57;;;3.60;;
12248;SDS011;6187;50.778;6.142;2023-06-22T05:30:54;4.27;;;3.73;;
12248;SDS011;6187;50.778;6.142;2023-06-22T05:33:23;6.13;;;4.00;;
12248;SDS011;6187;50.778;6.142;2023-06-22T05:35:51;5.50;;;3.57;;
12248;SDS011;6187;50.778;6.142;2023-06-22T05:38:21;5.13;;;3.33;;
12248;SDS011;6187;50.778;6.142;2023-06-22T05:40:50;5.43;;;3.67;;
12248;SDS011;6187;50.778;6.142;2023-06-22T05:43:18;4.60;;;3.60;;
12248;SDS011;6187;50.778;6.142;2023-06-22T05:45:47;5.20;;;3.90;;
12248;SDS011;6187;50.778;6.142;2023-06-22T05:48:15;4.43;;;4.03;;
12248;SDS011;6187;50.778;6.142;2023-06-22T05:50:44;3.73;;;3.37;;
12248;SDS011;6187;50.778;6.142;2023-06-22T05:53:13;4.20;;;3.73;;
12248;SDS011;6187;50.778;6.142;2023-06-22T05:55:43;4.23;;;3.43;;
12248;SDS011;6187;50.778;6.142;2023-06-22T05:58:11;3.67;;;3.37;;
12248;SDS011;6187;50.778;6.142;2023-06-22T06:00:40;6.33;;;4.03;;
12248;SDS011;6187;50.778;6.142;2023-06-22T06:03:10;4.17;;;3.50;;
12248;SDS011;6187;50.778;6.142;2023-06-22T06:05:41;6.40;;;3.77;;
12248;SDS011;6187;50.778;6.142;2023-06-22T06:08:09;4.60;;;4.20;;
12248;SDS011;6187;50.778;6.142;2023-06-22T06:10:38;7.60;;;5.13;;
12248;SDS011;6187;50.778;6.142;2023-06-22T06:13:08;5.70;;;4.70;;
12248;SDS011;6187;50.778;6.142;2023-06-22T06:15:37;6.03;;;4.30;;
12248;SDS011;6187;50.778;6.142;2023-06-22T06:18:06;5.63;;;3.97;;
12248;SDS011;6187;50.778;6.142;2023-06-22T06:20:35;4.43;;;4.03;;
12248;SDS011;6187;50.778;6.142;2023-06-22T06:23:03;4.07;;;3.67;;
12248;SDS011;6187;50.778;6.142;2023-06-22T06:25:32;4.63;;;3.97;;
12248;SDS011;6187;50.778;6.142;2023-06-22T06:28:00;5.07;;;3.90;;
12248;SDS011;6187;50.778;6.142;2023-06-22T06:30:30;4.50;;;3.70;;
12248;SDS011;6187;50.778;6.142;2023-06-22T06:32:59;4.40;;;3.87;;
12248;SDS011;6187;50.778;6.142;2023-06-22T06:35:28;4.37;;;3.80;;
12248;SDS011;6187;50.778;6.142;2023-06-22T06:37:57;5.53;;;3.90;;
12248;SDS011;6187;50.778;6.142;2023-06-22T06:40:26;6.07;;;4.10;;
12248;SDS011;6187;50.778;6.142;2023-06-22T06:42:55;4.23;;;3.83;;
12248;SDS011;6187;50.778;6.142;2023-06-22T06:45:24;5.73;;;4.17;;
12248;SDS011;6187;50.778;6.142;2023-06-22T06:47:56;5.07;;;4.00;;
12248;SDS011;6187;50.778;6.142;2023-06-22T06:50:25;4.07;;;3.53;;
12248;SDS011;6187;50.778;6.142;2023-06-22T06:52:54;5.80;;;4.53;;
12248;SDS011;6187;50.778;6.142;2023-06-22T06:55:25;5.20;;;4.30;;
12248;SDS011;6187;50.778;6.142;2023-06-22T06:57:55;5.10;;;4.60;;
12248;SDS011;6187;50.778;6.142;2023-06-22T07:00:23;4.63;;;4.23;;
12248;SDS011;6187;50.778;6.142;2023-06-22T07:02:52;4.90;;;4.40;;
12248;SDS011;6187;50.778;6.142;2023-06-22T07:05:22;5.73;;;4.77;;
12248;SDS011;6187;50.778;6.142;2023-06-22T07:07:51;5.03;;;4.53;;
12248;SDS011;6187;50.778;6.142;2023-06-22T07:10:20;5.17;;;4.43;;
12248;SDS011;6187;50.778;6.142;2023-06-22T07:12:49;4.60;;;3.97;;
12248;SDS011;6187;50.778;6.142;2023-06-22T07:15:17;4.93;;;4.27;;
12248;SDS011;6187;50.778;6.142;2023-06-22T07:17:46;6.97;;;5.13;;
12248;SDS011;6187;50.778;6.142;2023-06-22T07:20:14;7.00;;;4.90;;
12248;SDS011;6187;50.778;6.142;2023-06-22T07:22:44;5.93;;;5.13;;
12248;SDS011;6187;50.778;6.142;2023-06-22T07:25:13;7.97;;;4.90;;
12248;SDS011;6187;50.778;6.142;2023-06-22T07:27:44;5.23;;;4.20;;
12248;SDS011;6187;50.778;6.142;2023-06-22T07:30:13;5.23;;;4.67;;
12248;SDS011;6187;50.778;6.142;2023-06-22T07:32:42;5.80;;;4.20;;
12248;SDS011;6187;50.778;6.142;2023-06-22T07:35:10;6.30;;;4.90;;
12248;SDS011;6187;50.778;6.142;2023-06-22T07:37:39;5.30;;;4.40;;
12248;SDS011;6187;50.778;6.142;2023-06-22T07:40:09;4.13;;;3.73;;
12248;SDS011;6187;50.778;6.142;2023-06-22T07:42:38;5.97;;;3.90;;
12248;SDS011;6187;50.778;6.142;2023-06-22T07:45:07;4.00;;;3.60;;
12248;SDS011;6187;50.778;6.142;2023-06-22T07:47:36;5.03;;;3.88;;
12248;SDS011;6187;50.778;6.142;2023-06-22T07:50:05;4.43;;;4.00;;
12248;SDS011;6187;50.778;6.142;2023-06-22T07:52:33;5.03;;;3.85;;
12248;SDS011;6187;50.778;6.142;2023-06-22T07:55:03;4.30;;;3.90;;
12248;SDS011;6187;50.778;6.142;2023-06-22T07:57:33;5.30;;;4.03;;
12248;SDS011;6187;50.778;6.142;2023-06-22T08:00:03;5.10;;;4.50;;
12248;SDS011;6187;50.778;6.142;2023-06-22T08:02:38;5.40;;;4.37;;
12248;SDS011;6187;50.778;6.142;2023-06-22T08:05:08;5.30;;;4.63;;
12248;SDS011;6187;50.778;6.142;2023-06-22T08:07:57;5.20;;;4.00;;
12248;SDS011;6187;50.778;6.142;2023-06-22T08:10:26;5.30;;;3.97;;
12248;SDS011;6187;50.778;6.142;2023-06-22T08:12:56;4.73;;;4.03;;
12248;SDS011;6187;50.778;6.142;2023-06-22T08:15:25;5.40;;;4.70;;
12248;SDS011;6187;50.778;6.142;2023-06-22T08:17:55;5.77;;;5.17;;
12248;SDS011;6187;50.778;6.142;2023-06-22T08:20:24;5.13;;;4.63;;
12248;SDS011;6187;50.778;6.142;2023-06-22T08:22:53;5.30;;;4.80;;
12248;SDS011;6187;50.778;6.142;2023-06-22T08:25:22;6.40;;;4.87;;
12248;SDS011;6187;50.778;6.142;2023-06-22T08:27:50;5.65;;;4.70;;
12248;SDS011;6187;50.778;6.142;2023-06-22T08:30:20;6.10;;;4.70;;
12248;SDS011;6187;50.778;6.142;2023-06-22T08:32:49;5.47;;;4.67;;
12248;SDS011;6187;50.778;6.142;2023-06-22T08:35:17;6.83;;;5.03;;
12248;SDS011;6187;50.778;6.142;2023-06-22T08:37:47;7.40;;;5.22;;
12248;SDS011;6187;50.778;6.142;2023-06-22T08:40:19;6.90;;;4.95;;
12248;SDS011;6187;50.778;6.142;2023-06-22T08:42:47;5.50;;;4.78;;
12248;SDS011;6187;50.778;6.142;2023-06-22T08:45:16;6.32;;;4.53;;
12248;SDS011;6187;50.778;6.142;2023-06-22T08:47:46;5.78;;;4.55;;
12248;SDS011;6187;50.778;6.142;2023-06-22T08:50:15;7.10;;;4.97;;
12248;SDS011;6187;50.778;6.142;2023-06-22T08:52:43;6.15;;;4.95;;
12248;SDS011;6187;50.778;6.142;2023-06-22T08:55:12;4.90;;;4.40;;
12248;SDS011;6187;50.778;6.142;2023-06-22T08:57:41;5.75;;;4.93;;
12248;SDS011;6187;50.778;6.142;2023-06-22T09:00:10;5.43;;;4.57;;
12248;SDS011;6187;50.778;6.142;2023-06-22T09:02:44;5.10;;;4.53;;
12248;SDS011;6187;50.778;6.142;2023-06-22T09:05:15;5.32;;;4.75;;
12248;SDS011;6187;50.778;6.142;2023-06-22T09:07:44;5.35;;;4.82;;
12248;SDS011;6187;50.778;6.142;2023-06-22T09:10:13;5.45;;;4.95;;
12248;SDS011;6187;50.778;6.142;2023-06-22T09:12:42;6.80;;;4.63;;
12248;SDS011;6187;50.778;6.142;2023-06-22T09:15:10;5.32;;;4.80;;
12248;SDS011;6187;50.778;6.142;2023-06-22T09:17:44;5.43;;;4.95;;
12248;SDS011;6187;50.778;6.142;2023-06-22T09:20:15;5.15;;;4.65;;
12248;SDS011;6187;50.778;6.142;2023-06-22T09:22:44;5.18;;;4.78;;
12248;SDS011;6187;50.778;6.142;2023-06-22T09:25:13;6.20;;;5.07;;
12248;SDS011;6187;50.778;6.142;2023-06-22T09:27:41;4.93;;;4.40;;
12248;SDS011;6187;50.778;6.142;2023-06-22T09:30:10;5.20;;;4.70;;
12248;SDS011;6187;50.778;6.142;2023-06-22T09:32:39;4.88;;;4.47;;
12248;SDS011;6187;50.778;6.142;2023-06-22T09:35:09;5.68;;;5.07;;
12248;SDS011;6187;50.778;6.142;2023-06-22T09:37:40;5.40;;;4.90;;
12248;SDS011;6187;50.778;6.142;2023-06-22T09:40:09;4.97;;;4.45;;
12248;SDS011;6187;50.778;6.142;2023-06-22T09:42:41;6.57;;;5.00;;
12248;SDS011;6187;50.778;6.142;2023-06-22T09:45:10;6.32;;;4.68;;
12248;SDS011;6187;50.778;6.142;2023-06-22T09:47:38;5.20;;;4.70;;
12248;SDS011;6187;50.778;6.142;2023-06-22T09:50:08;5.47;;;4.85;;
12248;SDS011;6187;50.778;6.142;2023-06-22T09:52:36;6.07;;;4.70;;
12248;SDS011;6187;50.778;6.142;2023-06-22T09:55:09;5.53;;;5.03;;
12248;SDS011;6187;50.778;6.142;2023-06-22T09:57:38;6.37;;;5.13;;
12248;SDS011;6187;50.778;6.142;2023-06-22T10:00:07;6.10;;;5.50;;
12248;SDS011;6187;50.778;6.142;2023-06-22T10:02:38;6.37;;;5.73;;
12248;SDS011;6187;50.778;6.142;2023-06-22T10:05:07;6.40;;;5.57;;
12248;SDS011;6187;50.778;6.142;2023-06-22T10:07:36;6.60;;;5.57;;
12248;SDS011;6187;50.778;6.142;2023-06-22T10:10:10;6.17;;;5.60;;
12248;SDS011;6187;50.778;6.142;2023-06-22T10:12:41;6.93;;;6.23;;
12248;SDS011;6187;50.778;6.142;2023-06-22T10:15:10;7.60;;;6.90;;
12248;SDS011;6187;50.778;6.142;2023-06-22T10:17:39;7.20;;;6.50;;
12248;SDS011;6187;50.778;6.142;2023-06-22T10:20:08;6.77;;;6.17;;
12248;SDS011;6187;50.778;6.142;2023-06-22T10:22:40;8.37;;;7.27;;
12248;SDS011;6187;50.778;6.142;2023-06-22T10:25:11;7.47;;;6.77;;
12248;SDS011;6187;50.778;6.142;2023-06-22T10:27:40;8.27;;;7.43;;
12248;SDS011;6187;50.778;6.142;2023-06-22T10:30:09;7.60;;;6.90;;
12248;SDS011;6187;50.778;6.142;2023-06-22T10:32:39;8.47;;;7.67;;
12248;SDS011;6187;50.778;6.142;2023-06-22T10:35:09;8.03;;;7.23;;
12248;SDS011;6187;50.778;6.142;2023-06-22T10:37:40;7.93;;;7.17;;
12248;SDS011;6187;50.778;6.142;2023-06-22T10:40:12;8.53;;;7.73;;
12248;SDS011;6187;50.778;6.142;2023-06-22T10:42:41;8.80;;;8.00;;
12248;SDS011;6187;50.778;6.142;2023-06-22T10:45:10;8.47;;;7.53;;
12248;SDS011;6187;50.778;6.142;2023-06-22T10:47:38;8.83;;;8.00;;
12248;SDS011;6187;50.778;6.142;2023-06-22T10:50:09;9.97;;;8.97;;
12248;SDS011;6187;50.778;6.142;2023-06-22T10:52:37;9.70;;;8.77;;
12248;SDS011;6187;50.778;6.142;2023-06-22T10:55:07;10.80;;;9.70;;
12248;SDS011;6187;50.778;6.142;2023-06-22T10:57:37;10.17;;;9.17;;
12248;SDS011;6187;50.778;6.142;2023-06-22T11:00:10;10.57;;;9.57;;
12248;SDS011;6187;50.778;6.142;2023-06-22T11:02:38;10.33;;;9.33;;
12248;SDS011;6187;50.778;6.142;2023-06-22T11:05:07;11.00;;;9.87;;
12248;SDS011;6187;50.778;6.142;2023-06-22T11:07:36;11.53;;;10.43;;
12248;SDS011;6187;50.778;6.142;2023-06-22T11:10:10;12.10;;;10.90;;
12248;SDS011;6187;50.778;6.142;2023-06-22T11:12:41;12.20;;;10.90;;
12248;SDS011;6187;50.778;6.142;2023-06-22T11:15:10;12.17;;;11.00;;
12248;SDS011;6187;50.778;6.142;2023-06-22T11:17:38;13.00;;;11.77;;
12248;SDS011;6187;50.778;6.142;2023-06-22T11:20:07;12.63;;;11.33;;
12248;SDS011;6187;50.778;6.142;2023-06-22T11:22:52;12.67;;;11.37;;
12248;SDS011;6187;50.778;6.142;2023-06-22T11:25:21;12.33;;;11.13;;
12248;SDS011;6187;50.778;6.142;2023-06-22T11:27:51;11.53;;;10.33;;
12248;SDS011;6187;50.778;6.142;2023-06-22T11:30:20;10.47;;;9.47;;
12248;SDS011;6187;50.778;6.142;2023-06-22T11:32:49;10.53;;;9.53;;
12248;SDS011;6187;50.778;6.142;2023-06-22T11:35:17;9.83;;;8.83;;
12248;SDS011;6187;50.778;6.142;2023-06-22T11:37:46;9.80;;;8.80;;
12248;SDS011;6187;50.778;6.142;2023-06-22T11:40:16;9.83;;;8.83;;
12248;SDS011;6187;50.778;6.142;2023-06-22T11:42:45;10.50;;;9.43;;
12248;SDS011;6187;50.778;6.142;2023-06-22T11:45:15;9.87;;;8.70;;
12248;SDS011;6187;50.778;6.142;2023-06-22T11:47:44;9.27;;;8.37;;
12248;SDS011;6187;50.778;6.142;2023-06-22T11:50:13;10.87;;;9.00;;
12248;SDS011;6187;50.778;6.142;2023-06-22T11:52:42;9.67;;;8.63;;
12248;SDS011;6187;50.778;6.142;2023-06-22T11:55:10;9.20;;;8.30;;
12248;SDS011;6187;50.778;6.142;2023-06-22T11:57:51;9.73;;;8.83;;
12248;SDS011;6187;50.778;6.142;2023-06-22T12:00:21;9.07;;;8.17;;
12248;SDS011;6187;50.778;6.142;2023-06-22T12:02:55;8.63;;;7.83;;
12248;SDS011;6187;50.778;6.142;2023-06-22T12:05:27;8.87;;;7.97;;
12248;SDS011;6187;50.778;6.142;2023-06-22T12:07:55;8.40;;;7.63;;
12248;SDS011;6187;50.778;6.142;2023-06-22T12:10:25;9.20;;;8.30;;
12248;SDS011;6187;50.778;6.142;2023-06-22T12:12:55;10.37;;;9.37;;
12248;SDS011;6187;50.778;6.142;2023-06-22T12:15:27;10.47;;;9.13;;
12248;SDS011;6187;50.778;6.142;2023-06-22T12:17:56;9.73;;;8.73;;
12248;SDS011;6187;50.778;6.142;2023-06-22T12:20:25;9.60;;;8.73;;
12248;SDS011;6187;50.778;6.142;2023-06-22T12:22:54;9.37;;;8.47;;
12248;SDS011;6187;50.778;6.142;2023-06-22T12:25:24;9.87;;;8.83;;
12248;SDS011;6187;50.778;6.142;2023-06-22T12:27:53;10.90;;;9.67;;
12248;SDS011;6187;50.778;6.142;2023-06-22T12:30:22;10.93;;;9.93;;
12248;SDS011;6187;50.778;6.142;2023-06-22T12:32:52;9.73;;;8.73;;
12248;SDS011;6187;50.778;6.142;2023-06-22T12:35:22;9.37;;;8.47;;
12248;SDS011;6187;50.778;6.142;2023-06-22T12:37:51;9.03;;;8.20;;
12248;SDS011;6187;50.778;6.142;2023-06-22T12:40:19;9.37;;;8.47;;
12248;SDS011;6187;50.778;6.142;2023-06-22T12:42:48;8.80;;;7.90;;
12248;SDS011;6187;50.778;6.142;2023-06-22T12:45:16;8.63;;;7.83;;
12248;SDS011;6187;50.778;6.142;2023-06-22T12:47:48;9.43;;;8.50;;
12248;SDS011;6187;50.778;6.142;2023-06-22T12:50:18;9.35;;;8.45;;
12248;SDS011;6187;50.778;6.142;2023-06-22T12:52:47;9.93;;;8.97;;
12248;SDS011;6187;50.778;6.142;2023-06-22T12:55:15;9.70;;;8.73;;
12248;SDS011;6187;50.778;6.142;2023-06-22T12:57:44;9.60;;;8.60;;
12248;SDS011;6187;50.778;6.142;2023-06-22T13:00:13;8.67;;;7.77;;
12248;SDS011;6187;50.778;6.142;2023-06-22T13:02:42;7.90;;;7.10;;
12248;SDS011;6187;50.778;6.142;2023-06-22T13:05:11;9.60;;;8.33;;
12248;SDS011;6187;50.778;6.142;2023-06-22T13:07:41;8.17;;;7.37;;
12248;SDS011;6187;50.778;6.142;2023-06-22T13:10:09;8.40;;;7.40;;
12248;SDS011;6187;50.778;6.142;2023-06-22T13:12:38;7.67;;;6.97;;
12248;SDS011;6187;50.778;6.142;2023-06-22T13:15:07;8.67;;;7.67;;
12248;SDS011;6187;50.778;6.142;2023-06-22T13:17:35;8.40;;;7.50;;
12248;SDS011;6187;50.778;6.142;2023-06-22T13:20:05;8.07;;;7.17;;
12248;SDS011;6187;50.778;6.142;2023-06-22T13:22:34;8.03;;;7.10;;
12248;SDS011;6187;50.778;6.142;2023-06-22T13:25:08;7.83;;;7.07;;
12248;SDS011;6187;50.778;6.142;2023-06-22T13:27:39;9.70;;;8.80;;
12248;SDS011;6187;50.778;6.142;2023-06-22T13:30:08;10.43;;;9.07;;
12248;SDS011;6187;50.778;6.142;2023-06-22T13:32:40;9.87;;;8.87;;
12248;SDS011;6187;50.778;6.142;2023-06-22T13:35:10;9.07;;;8.17;;
12248;SDS011;6187;50.778;6.142;2023-06-22T13:37:38;8.67;;;7.83;;
12248;SDS011;6187;50.778;6.142;2023-06-22T13:40:09;9.87;;;8.87;;
12248;SDS011;6187;50.778;6.142;2023-06-22T13:42:37;9.67;;;8.77;;
12248;SDS011;6187;50.778;6.142;2023-06-22T13:45:06;9.87;;;8.90;;
12248;SDS011;6187;50.778;6.142;2023-06-22T13:47:35;11.07;;;10.00;;
12248;SDS011;6187;50.778;6.142;2023-06-22T13:50:04;9.93;;;9.03;;
12248;SDS011;6187;50.778;6.142;2023-06-22T13:52:33;11.77;;;10.57;;
12248;SDS011;6187;50.778;6.142;2023-06-22T13:55:03;12.37;;;11.07;;
12248;SDS011;6187;50.778;6.142;2023-06-22T13:57:33;12.13;;;10.97;;
12248;SDS011;6187;50.778;6.142;2023-06-22T14:00:02;11.77;;;10.30;;
12248;SDS011;6187;50.778;6.142;2023-06-22T14:02:32;11.90;;;10.70;;
12248;SDS011;6187;50.778;6.142;2023-06-22T14:05:00;12.03;;;10.83;;
12248;SDS011;6187;50.778;6.142;2023-06-22T14:07:29;10.73;;;9.73;;
12248;SDS011;6187;50.778;6.142;2023-06-22T14:09:58;11.10;;;10.00;;
12248;SDS011;6187;50.778;6.142;2023-06-22T14:12:26;12.13;;;10.83;;
12248;SDS011;6187;50.778;6.142;2023-06-22T14:14:56;12.87;;;11.57;;
12248;SDS011;6187;50.778;6.142;2023-06-22T14:17:25;13.87;;;12.37;;
12248;SDS011;6187;50.778;6.142;2023-06-22T14:19:53;12.47;;;11.17;;
12248;SDS011;6187;50.778;6.142;2023-06-22T14:22:22;12.93;;;11.63;;
12248;SDS011;6187;50.778;6.142;2023-06-22T14:24:52;13.50;;;12.20;;
12248;SDS011;6187;50.778;6.142;2023-06-22T14:27:22;13.33;;;11.93;;
12248;SDS011;6187;50.778;6.142;2023-06-22T14:29:51;15.27;;;13.10;;
12248;SDS011;6187;50.778;6.142;2023-06-22T14:32:21;14.13;;;12.63;;
12248;SDS011;6187;50.778;6.142;2023-06-22T14:34:50;15.10;;;13.60;;
12248;SDS011;6187;50.778;6.142;2023-06-22T14:37:19;14.53;;;13.03;;
12248;SDS011;6187;50.778;6.142;2023-06-22T14:39:47;13.47;;;12.07;;
12248;SDS011;6187;50.778;6.142;2023-06-22T14:42:16;13.67;;;12.27;;
12248;SDS011;6187;50.778;6.142;2023-06-22T14:44:45;14.83;;;13.33;;
12248;SDS011;6187;50.778;6.142;2023-06-22T14:47:13;15.27;;;13.77;;
12248;SDS011;6187;50.778;6.142;2023-06-22T14:49:46;15.80;;;14.20;;
12248;SDS011;6187;50.778;6.142;2023-06-22T14:52:14;15.77;;;14.17;;
12248;SDS011;6187;50.778;6.142;2023-06-22T14:54:43;17.13;;;14.27;;
12248;SDS011;6187;50.778;6.142;2023-06-22T14:57:12;18.40;;;16.60;;
12248;SDS011;6187;50.778;6.142;2023-06-22T14:59:44;19.00;;;17.00;;
12248;SDS011;6187;50.778;6.142;2023-06-22T15:02:13;19.50;;;17.50;;
12248;SDS011;6187;50.778;6.142;2023-06-22T15:04:41;16.60;;;14.97;;
12248;SDS011;6187;50.778;6.142;2023-06-22T15:07:11;14.23;;;12.73;;
12248;SDS011;6187;50.778;6.142;2023-06-22T15:09:40;13.33;;;11.93;;
12248;SDS011;6187;50.778;6.142;2023-06-22T15:12:11;17.70;;;13.83;;